Time;durP1;ratioP1;P1;durP2;ratioP2;P2;SDS_P1;SDS_P2;PMS_P1;PMS_P2;Temp;Humidity;BMP_temperature;BMP_pressure;BME280_temperature;BME280_humidity;BME280_pressure;Samples;Min_cycle;Max_cycle;Signal;HPM_P1;HPM_P2
2021/12/03 04:46:23;;;;;;;24.52;14.73;;;;;;;3.87;100.00;99250.59;5471697;28;20101;-86
2021/12/03 04:49:26;;;;;;;23.33;14.70;;;;;;;3.81;100.00;99264.56;5306756;33;34444;-85
2021/12/03 04:52:29;;;;;;;25.08;14.65;;;;;;;3.81;100.00;99269.06;5306655;33;34015;-85
2021/12/03 04:55:32;;;;;;;25.45;14.95;;;;;;;3.85;100.00;99284.53;5306437;33;35300;-85
2021/12/03 04:58:35;;;;;;;22.05;14.48;;;;;;;3.83;100.00;99291.87;5320183;33;33757;-85
2021/12/03 05:01:39;;;;;;;22.02;14.07;;;;;;;3.79;100.00;99293.16;5323929;33;34410;-85
2021/12/03 05:04:42;;;;;;;23.08;14.50;;;;;;;3.88;100.00;99296.69;5324446;33;34060;-87
2021/12/03 05:07:57;;;;;;;23.35;14.85;;;;;;;3.80;100.00;99300.16;5324486;33;34343;-86
2021/12/03 05:11:01;;;;;;;22.13;13.85;;;;;;;3.80;100.00;99294.84;5313611;33;34483;-89
2021/12/03 05:14:04;;;;;;;24.65;14.75;;;;;;;3.81;100.00;99307.16;5302371;33;34639;-90
2021/12/03 05:17:07;;;;;;;23.85;15.30;;;;;;;3.74;100.00;99313.28;5305392;33;34341;-86
2021/12/03 05:20:10;;;;;;;24.80;15.63;;;;;;;3.73;100.00;99320.44;5307640;33;34365;-86
2021/12/03 05:23:14;;;;;;;25.77;14.95;;;;;;;3.72;100.00;99332.06;5307779;33;34591;-86
2021/12/03 05:26:17;;;;;;;25.90;15.10;;;;;;;3.73;100.00;99349.72;5308058;33;34038;-86
2021/12/03 05:29:21;;;;;;;25.40;15.65;;;;;;;3.72;100.00;99344.56;5308460;33;34102;-86
2021/12/03 05:32:23;;;;;;;25.25;15.82;;;;;;;3.69;100.00;99347.53;5307786;33;34078;-86
2021/12/03 05:35:27;;;;;;;28.42;16.52;;;;;;;3.81;100.00;99356.91;5308397;33;33945;-86
2021/12/03 05:38:30;;;;;;;25.50;15.32;;;;;;;3.77;100.00;99369.72;5308024;33;34300;-86
2021/12/03 05:41:34;;;;;;;26.17;15.60;;;;;;;3.66;100.00;99385.09;5308204;33;33696;-86
2021/12/03 05:44:37;;;;;;;26.08;15.80;;;;;;;3.65;100.00;99394.91;5308762;33;34448;-85
2021/12/03 05:47:40;;;;;;;24.85;15.73;;;;;;;3.68;100.00;99394.59;5290576;33;33968;-86
2021/12/03 05:50:43;;;;;;;26.80;15.13;;;;;;;3.58;100.00;99404.53;5290979;33;34154;-86
2021/12/03 05:53:45;;;;;;;27.42;15.35;;;;;;;3.63;100.00;99420.88;5307224;33;34284;-86
2021/12/03 05:56:48;;;;;;;27.98;14.98;;;;;;;3.70;98.53;99424.56;5325777;33;34903;-86
2021/12/03 05:59:51;;;;;;;26.85;13.95;;;;;;;3.61;98.44;99439.63;5314189;33;34803;-86
2021/12/03 06:02:55;;;;;;;24.60;14.82;;;;;;;3.51;98.10;99446.91;5307475;33;34848;-86
2021/12/03 06:05:58;;;;;;;24.92;13.70;;;;;;;3.48;96.28;99451.69;5312358;33;34428;-85
2021/12/03 06:09:02;;;;;;;22.33;12.57;;;;;;;3.48;95.04;99457.00;5301134;33;33834;-85
2021/12/03 06:12:06;;;;;;;20.05;11.68;;;;;;;3.40;92.50;99457.78;5293200;33;33873;-86
2021/12/03 06:15:09;;;;;;;22.30;11.55;;;;;;;3.43;92.10;99468.13;5307602;33;34243;-86
2021/12/03 06:18:12;;;;;;;23.45;11.93;;;;;;;3.43;91.89;99480.59;5290268;33;33903;-85
2021/12/03 06:21:15;;;;;;;18.48;10.48;;;;;;;3.23;92.76;99491.37;5290250;33;34340;-86
2021/12/03 06:24:19;;;;;;;18.40;10.00;;;;;;;3.32;91.07;99479.81;5290699;33;33870;-86
2021/12/03 06:27:24;;;;;;;18.00;9.70;;;;;;;3.27;89.29;99502.56;5291078;33;35293;-86
2021/12/03 06:30:30;;;;;;;20.00;9.27;;;;;;;3.18;89.41;99505.13;5308555;33;33541;-86
2021/12/03 06:33:33;;;;;;;15.38;8.63;;;;;;;3.14;88.29;99508.25;5312315;33;34837;-85
2021/12/03 06:36:36;;;;;;;16.05;8.60;;;;;;;3.02;87.77;99515.63;5318798;33;34270;-86
2021/12/03 06:39:39;;;;;;;17.05;8.52;;;;;;;3.03;87.08;99535.06;5309964;33;35374;-86
2021/12/03 06:42:42;;;;;;;17.95;8.70;;;;;;;2.95;87.36;99543.78;5309442;33;35354;-85
2021/12/03 06:45:45;;;;;;;14.63;7.30;;;;;;;3.00;85.96;99548.66;5308336;33;34630;-85
2021/12/03 06:48:48;;;;;;;15.45;7.55;;;;;;;2.91;87.14;99561.88;5308971;33;33838;-85
2021/12/03 06:51:51;;;;;;;17.90;7.55;;;;;;;2.89;84.40;99579.78;5309123;33;34276;-85
2021/12/03 06:54:57;;;;;;;14.27;6.95;;;;;;;2.84;86.90;99583.88;5308398;33;33839;-85
2021/12/03 06:58:00;;;;;;;13.65;7.32;;;;;;;2.86;84.41;99581.91;5324935;33;35061;-85
2021/12/03 07:01:03;;;;;;;13.05;7.25;;;;;;;2.84;86.27;99587.38;5313340;33;33280;-85
2021/12/03 07:04:10;;;;;;;12.55;6.50;;;;;;;2.86;83.35;99592.53;5321315;33;34406;-85
2021/12/03 07:07:13;;;;;;;13.10;6.55;;;;;;;2.83;83.45;99584.84;5312807;33;34348;-86
2021/12/03 07:10:16;;;;;;;14.87;6.15;;;;;;;2.76;83.30;99597.91;5308983;33;34911;-85
2021/12/03 07:13:19;;;;;;;10.45;6.00;;;;;;;2.74;82.96;99602.53;5309028;33;35725;-86
2021/12/03 07:16:22;;;;;;;11.95;5.32;;;;;;;2.71;82.58;99611.63;5303044;33;34334;-86
2021/12/03 07:19:25;;;;;;;10.10;5.47;;;;;;;2.65;80.92;99609.56;5297880;33;35278;-86
2021/12/03 07:22:29;;;;;;;13.75;5.90;;;;;;;2.63;81.37;99616.84;5298704;33;35450;-89
2021/12/03 07:25:32;;;;;;;10.30;4.87;;;;;;;2.69;81.60;99626.03;5304831;33;35410;-90
2021/12/03 07:28:35;;;;;;;9.43;5.10;;;;;;;2.63;80.16;99643.44;5298627;33;33831;-90
2021/12/03 07:31:38;;;;;;;9.10;5.28;;;;;;;2.70;78.26;99641.84;5300161;33;33924;-87
2021/12/03 07:34:41;;;;;;;11.93;5.00;;;;;;;2.70;79.78;99662.28;5306518;33;34499;-86
2021/12/03 07:37:44;;;;;;;9.95;5.00;;;;;;;2.74;78.79;99676.94;5302357;33;33962;-86
2021/12/03 07:40:48;;;;;;;14.25;6.00;;;;;;;2.73;77.83;99688.56;5303073;33;35217;-86
2021/12/03 07:43:51;;;;;;;8.57;4.60;;;;;;;2.76;78.07;99706.88;5303160;33;33630;-86
2021/12/03 07:46:54;;;;;;;10.77;4.70;;;;;;;2.86;77.68;99726.28;5301768;33;34331;-86
2021/12/03 07:49:57;;;;;;;13.20;5.12;;;;;;;2.91;76.72;99732.00;5304538;33;34022;-86
2021/12/03 07:52:59;;;;;;;9.68;4.82;;;;;;;2.97;76.60;99749.22;5301632;33;33897;-85
2021/12/03 07:56:03;;;;;;;10.13;4.82;;;;;;;2.95;78.12;99737.88;5300944;33;35732;-86
2021/12/03 07:59:06;;;;;;;8.63;5.00;;;;;;;3.07;75.16;99741.19;5302956;33;34111;-86
2021/12/03 08:02:09;;;;;;;12.10;4.62;;;;;;;3.03;77.12;99761.09;5301354;33;33895;-85
2021/12/03 08:05:12;;;;;;;10.85;5.12;;;;;;;3.09;75.95;99756.03;5304610;33;34230;-86
2021/12/03 08:08:22;;;;;;;13.82;5.32;;;;;;;3.10;76.42;99771.03;5299859;33;33746;-86
2021/12/03 08:11:25;;;;;;;9.65;5.07;;;;;;;3.14;75.63;99783.03;5300294;33;33890;-86
2021/12/03 08:14:28;;;;;;;9.68;4.53;;;;;;;3.09;75.47;99779.13;5304083;33;33900;-86
2021/12/03 08:17:31;;;;;;;9.07;4.47;;;;;;;3.16;74.73;99793.53;5305324;33;35005;-85
2021/12/03 08:20:34;;;;;;;9.40;4.45;;;;;;;3.16;74.97;99802.34;5302857;33;33478;-85
2021/12/03 08:23:40;;;;;;;11.77;4.50;;;;;;;3.31;74.82;99808.03;5303493;33;33944;-85
2021/12/03 08:26:42;;;;;;;8.57;3.95;;;;;;;3.30;72.78;99819.66;5302232;33;34490;-86
2021/12/03 08:29:45;;;;;;;9.25;3.95;;;;;;;3.29;73.10;99831.28;5299860;33;33837;-86
2021/12/03 08:32:52;;;;;;;7.30;3.87;;;;;;;3.34;72.11;99833.53;5300069;33;34754;-86
2021/12/03 08:35:55;;;;;;;9.25;4.12;;;;;;;3.35;72.62;99845.84;5300688;33;33915;-86
2021/12/03 08:38:58;;;;;;;9.05;4.22;;;;;;;3.46;71.76;99842.16;5302993;33;34002;-87
2021/12/03 08:42:02;;;;;;;8.25;4.15;;;;;;;3.38;71.36;99851.69;5303065;33;34443;-87
2021/12/03 08:45:05;;;;;;;10.70;4.95;;;;;;;3.48;69.75;99854.34;5308597;33;34050;-86
2021/12/03 08:48:08;;;;;;;7.30;3.85;;;;;;;3.57;69.58;99857.97;5318196;33;34439;-86
2021/12/03 08:54:56;;;;;;;6.93;3.85;;;;;;;3.60;70.43;99874.47;5252949;33;36741;-87
2021/12/03 08:57:59;;;;;;;7.70;3.80;;;;;;;3.79;68.62;99884.19;5250964;33;33524;-87
2021/12/03 09:01:02;;;;;;;8.38;3.45;;;;;;;3.92;66.72;99883.00;5300036;33;33733;-87
2021/12/03 09:04:06;;;;;;;8.15;3.87;;;;;;;4.02;67.92;99895.31;5301777;33;34290;-89
2021/12/03 09:07:09;;;;;;;7.85;3.80;;;;;;;4.11;65.68;99890.91;5307552;33;35582;-90
2021/12/03 09:10:13;;;;;;;10.40;3.47;;;;;;;4.06;64.97;99887.84;5302191;33;36326;-90
2021/12/03 09:13:16;;;;;;;12.25;3.50;;;;;;;4.04;64.10;99896.00;5311516;33;33897;-89
2021/12/03 09:16:21;;;;;;;9.38;3.58;;;;;;;4.12;64.06;99903.25;5310754;33;35213;-89
2021/12/03 09:19:31;;;;;;;6.85;3.05;;;;;;;4.29;63.53;99909.63;5324006;33;34401;-87
2021/12/03 09:25:45;;;;;;;6.43;3.05;;;;;;;4.35;60.04;99932.16;5321697;33;35401;-87
2021/12/03 09:28:54;;;;;;;7.62;3.37;;;;;;;4.39;60.34;99930.88;5303915;33;33738;-88
2021/12/03 09:31:58;;;;;;;5.18;3.33;;;;;;;4.45;60.42;99933.78;5306702;33;33855;-87
2021/12/03 09:35:02;;;;;;;5.50;3.10;;;;;;;4.49;60.61;99934.31;5302103;33;34191;-88
2021/12/03 09:38:05;;;;;;;4.87;3.08;;;;;;;4.41;61.45;99927.06;5292228;33;34785;-87
2021/12/03 09:41:16;;;;;;;6.15;3.10;;;;;;;4.49;59.75;99931.66;5306882;33;34747;-87
2021/12/03 09:44:20;;;;;;;8.65;3.03;;;;;;;4.86;63.30;99934.22;5307053;33;33520;-87
2021/12/03 09:47:23;;;;;;;4.95;3.08;;;;;;;5.16;59.65;99938.31;5308133;33;34000;-87
2021/12/03 09:50:26;;;;;;;8.45;3.60;;;;;;;5.12;57.56;99939.63;5304973;33;35564;-88
2021/12/03 09:57:16;;;;;;;6.35;3.30;;;;;;;5.27;58.03;99939.09;5248363;33;34292;-85
2021/12/03 10:27:18;;;;;;;6.55;3.20;;;;;;;4.49;57.13;99956.50;5305188;33;33809;-86
2021/12/03 10:33:53;;;;;;;7.80;3.60;;;;;;;4.63;57.75;99962.31;5306563;33;34129;-86
2021/12/03 10:47:15;;;;;;;6.87;3.62;;;;;;;5.32;58.57;99972.31;5294245;33;34389;-85
2021/12/03 10:53:55;;;;;;;5.43;3.15;;;;;;;6.09;55.64;99965.38;5298913;33;33945;-86
2021/12/03 10:57:33;;;;;;;10.40;3.80;;;;;;;6.21;53.14;99963.25;5299932;33;34876;-85
2021/12/03 11:11:29;;;;;;;5.20;3.07;;;;;;;6.12;50.91;100002.47;5305820;33;34591;-85
2021/12/03 11:35:08;;;;;;;4.12;2.58;;;;;;;6.92;45.85;100015.50;5307956;33;34617;-85
2021/12/03 12:09:13;;;;;;;7.37;3.17;;;;;;;5.91;49.11;100039.38;5292275;33;35279;-86
2021/12/03 13:56:03;;;;;;;8.38;4.68;;;;;;;3.49;62.45;100106.19;5299769;33;36115;-86
2021/12/03 14:18:02;;;;;;;11.68;4.95;;;;;;;3.23;63.96;100150.25;5309850;33;35036;-86
2021/12/03 14:20:28;;;;;;;7.50;4.50;;;;;;;3.13;65.82;100163.50;5306420;33;34094;-86
2021/12/03 14:42:20;;;;;;;10.70;4.70;;;;;;;2.86;67.99;100199.50;5318127;33;33983;-86
2021/12/03 14:52:32;;;;;;;6.40;4.43;;;;;;;2.79;68.43;100203.69;5309648;33;34279;-86
2021/12/03 14:55:25;;;;;;;9.38;5.18;;;;;;;2.72;68.72;100203.37;5307582;33;33897;-86
2021/12/03 14:58:41;;;;;;;7.30;4.60;;;;;;;2.64;69.75;100212.97;5299257;33;33683;-86
2021/12/03 15:05:49;;;;;;;10.95;5.07;;;;;;;2.56;70.20;100213.63;5309618;33;34002;-86
2021/12/03 15:08:23;;;;;;;7.65;4.65;;;;;;;2.47;71.60;100220.56;5300508;33;33623;-86
2021/12/03 15:12:04;;;;;;;10.23;5.35;;;;;;;2.50;69.31;100232.75;5306722;33;34528;-86
2021/12/03 15:21:31;;;;;;;8.73;5.55;;;;;;;2.33;69.28;100250.09;5306980;33;34790;-86
2021/12/03 15:24:58;;;;;;;11.50;5.60;;;;;;;2.24;71.47;100253.53;5302876;33;33808;-86
2021/12/03 15:31:20;;;;;;;8.98;4.97;;;;;;;2.10;70.70;100257.31;5309601;33;34142;-86
2021/12/03 15:34:39;;;;;;;7.93;4.47;;;;;;;2.03;70.86;100250.84;5310759;33;34627;-86
2021/12/03 16:04:08;;;;;;;11.65;5.50;;;;;;;1.66;67.31;100284.81;5301863;33;34701;-86
2021/12/03 16:10:20;;;;;;;9.25;5.20;;;;;;;1.38;69.96;100297.63;5311700;33;34542;-86
2021/12/03 16:52:21;;;;;;;10.48;5.62;;;;;;;1.03;68.14;100353.41;5317417;33;34823;-86
